Terminal Aerodrome Forecast
Issued by NWS

Home | Current Version | Previous Version | Text Only | Print | Product List | Glossary On
Versions: 1 2 3 4 5 6 7 8 9 10 11 12 13 14 15 16 17 18 19 20 21 22 23 24 25 26 27 28 29 30 31 32 33 34 35 36 37 38 39 40 41 42 43 44
000
FTUS45 KGJT 251739
TAFRIL
TAF
KRIL 251739Z 2518/2618 VRB03KT 3SM -SHSN BR BKN025 OVC030
      TEMPO 2518/2521 1 1/2SM -SHSN BR BKN015 OVC030
     FM252100 26006KT 2SM -SN BR OVC015
      TEMPO 2522/2602 1SM -SN BR OVC010
     FM260400 29007KT 5SM -SHSN BR SCT015 OVC040
     FM260800 27005KT 5SM BR VCSH BKN015=

USA.gov is the U.S. government's official web portal to all federal, state and local government web resources and services.